Time;durP1;ratioP1;P1;durP2;ratioP2;P2;SDS_P1;SDS_P2;PMS_P1;PMS_P2;Temp;Humidity;BMP_temperature;BMP_pressure;BME280_temperature;BME280_humidity;BME280_pressure;Samples;Min_cycle;Max_cycle;Signal;HPM_P1;HPM_P2
2023/06/16 00:01:38;;;;;;;7.18;4.30;;;17.10;88.70;;;;;;5031931;28;20041;-64
2023/06/16 00:04:04;;;;;;;8.93;4.45;;;17.10;89.00;;;;;;5031388;28;20056;-64
2023/06/16 00:06:30;;;;;;;6.85;4.65;;;17.10;89.10;;;;;;5030137;28;20471;-64
2023/06/16 00:08:57;;;;;;;6.43;4.63;;;17.10;89.60;;;;;;5031500;28;20037;-63
2023/06/16 00:11:27;;;;;;;7.38;4.40;;;16.90;90.20;;;;;;5031920;28;20037;-63
2023/06/16 00:13:54;;;;;;;5.25;4.05;;;16.80;90.70;;;;;;5029715;28;20540;-63
2023/06/16 00:16:20;;;;;;;7.78;4.20;;;16.70;91.20;;;;;;5031568;28;20049;-64
2023/06/16 00:18:51;;;;;;;5.60;4.05;;;16.60;92.00;;;;;;5031296;28;20045;-63
2023/06/16 00:21:29;;;;;;;6.40;4.32;;;16.60;92.00;;;;;;5031924;28;20038;-64
2023/06/16 00:23:56;;;;;;;11.13;4.65;;;16.60;92.40;;;;;;5029638;28;20038;-64
2023/06/16 00:26:26;;;;;;;7.75;4.38;;;16.60;92.70;;;;;;5031637;28;20499;-63
2023/06/16 00:28:52;;;;;;;5.90;4.10;;;16.60;92.90;;;;;;5030972;28;20045;-64
2023/06/16 00:31:18;;;;;;;6.93;4.70;;;16.60;93.10;;;;;;5031425;28;20312;-63
2023/06/16 00:33:43;;;;;;;7.22;4.80;;;16.60;93.40;;;;;;5031696;28;20033;-64
2023/06/16 00:36:09;;;;;;;8.02;4.47;;;16.60;93.70;;;;;;5030339;28;20050;-64
2023/06/16 00:38:34;;;;;;;8.20;4.78;;;16.50;94.00;;;;;;5031170;28;20056;-63
2023/06/16 00:41:01;;;;;;;9.30;4.55;;;16.50;94.30;;;;;;5035255;28;20044;-64
2023/06/16 00:43:26;;;;;;;7.55;4.88;;;16.50;94.60;;;;;;5034761;28;20052;-64
2023/06/16 00:45:52;;;;;;;7.57;5.72;;;16.50;95.20;;;;;;5035435;28;20458;-64
2023/06/16 00:48:18;;;;;;;7.47;4.28;;;16.50;95.10;;;;;;5034951;28;20083;-64
2023/06/16 00:50:45;;;;;;;5.60;4.38;;;16.50;95.20;;;;;;5035139;28;20033;-64
2023/06/16 00:53:10;;;;;;;6.13;4.90;;;16.40;95.30;;;;;;5035235;28;20073;-64
2023/06/16 00:55:37;;;;;;;7.18;4.68;;;16.40;95.50;;;;;;5035135;28;20088;-64
2023/06/16 00:58:03;;;;;;;7.00;5.18;;;16.40;95.70;;;;;;5034437;28;20499;-64
2023/06/16 01:00:32;;;;;;;7.05;5.07;;;16.30;96.00;;;;;;5034624;28;20152;-64
2023/06/16 01:02:57;;;;;;;8.23;5.50;;;16.30;96.20;;;;;;5035200;28;20041;-63
2023/06/16 01:05:24;;;;;;;8.35;5.38;;;16.30;96.50;;;;;;5034603;28;20111;-63
2023/06/16 01:08:22;;;;;;;8.48;5.40;;;16.30;96.70;;;;;;5035000;28;20042;-63
2023/06/16 01:11:06;;;;;;;7.00;5.32;;;16.30;96.70;;;;;;5034545;28;20395;-64
2023/06/16 01:14:20;;;;;;;8.50;5.85;;;16.20;96.90;;;;;;5034774;28;20670;-64
2023/06/16 01:16:47;;;;;;;8.65;5.80;;;16.20;96.80;;;;;;4999678;28;20064;-64
2023/06/16 01:19:28;;;;;;;7.80;5.40;;;16.10;97.40;;;;;;5034452;28;20491;-64
2023/06/16 01:22:06;;;;;;;6.25;5.25;;;16.10;97.60;;;;;;5034894;28;20144;-64
2023/06/16 01:24:33;;;;;;;9.75;5.70;;;16.00;97.80;;;;;;5034459;28;20053;-63
2023/06/16 01:27:00;;;;;;;8.15;5.50;;;16.00;98.00;;;;;;5034593;28;20095;-64
2023/06/16 01:29:27;;;;;;;6.50;4.90;;;15.90;98.10;;;;;;5034258;28;20034;-63
2023/06/16 01:31:57;;;;;;;8.77;5.30;;;15.90;98.20;;;;;;5034090;28;20537;-64
2023/06/16 01:34:24;;;;;;;7.18;5.20;;;15.90;98.10;;;;;;5034044;28;20068;-63
2023/06/16 01:36:50;;;;;;;10.68;5.47;;;15.90;98.30;;;;;;5034498;28;20045;-63
2023/06/16 01:39:17;;;;;;;6.20;4.88;;;15.90;98.50;;;;;;5033630;28;20033;-63
2023/06/16 01:41:45;;;;;;;6.90;5.40;;;15.80;98.70;;;;;;5034330;28;20037;-64
2023/06/16 01:44:10;;;;;;;6.88;5.35;;;15.70;99.00;;;;;;5033369;28;20033;-64
2023/06/16 01:46:37;;;;;;;7.05;5.50;;;15.70;99.20;;;;;;5034483;28;20041;-64
2023/06/16 01:49:03;;;;;;;7.60;5.00;;;15.70;99.40;;;;;;5033457;28;20068;-63
2023/06/16 01:51:28;;;;;;;7.20;5.25;;;15.60;99.70;;;;;;5033249;28;20092;-64
2023/06/16 01:53:56;;;;;;;9.88;5.30;;;15.60;99.90;;;;;;5033888;28;20080;-64
2023/06/16 01:56:22;;;;;;;6.78;5.13;;;15.60;99.90;;;;;;5033588;28;20049;-63
2023/06/16 01:58:47;;;;;;;7.55;5.50;;;15.60;99.90;;;;;;5033679;28;20041;-64
2023/06/16 02:01:16;;;;;;;8.43;5.05;;;15.60;99.90;;;;;;5030129;28;20025;-64
2023/06/16 02:04:08;;;;;;;6.70;5.00;;;15.60;99.90;;;;;;5032284;28;20029;-63
2023/06/16 02:06:56;;;;;;;9.05;5.88;;;15.50;99.90;;;;;;5032864;28;20099;-64
2023/06/16 02:09:22;;;;;;;8.48;5.55;;;15.50;99.90;;;;;;5032822;28;20099;-63
2023/06/16 02:11:51;;;;;;;9.32;5.22;;;15.50;99.90;;;;;;5032549;28;20041;-64
2023/06/16 02:14:18;;;;;;;7.45;5.85;;;15.40;99.90;;;;;;5032706;28;20074;-63
2023/06/16 02:16:44;;;;;;;6.28;5.28;;;15.40;99.90;;;;;;5033715;28;20044;-64
2023/06/16 02:19:11;;;;;;;8.85;5.30;;;15.40;99.90;;;;;;5033482;28;20124;-64
2023/06/16 02:21:40;;;;;;;10.90;5.78;;;15.30;99.90;;;;;;5033537;28;20140;-64
2023/06/16 02:24:07;;;;;;;8.52;5.78;;;15.30;99.90;;;;;;5033155;28;20525;-64
2023/06/16 02:26:33;;;;;;;9.70;5.70;;;15.20;99.90;;;;;;5033741;28;20109;-64
2023/06/16 02:28:58;;;;;;;9.07;5.97;;;15.20;99.90;;;;;;5033080;28;20137;-63
2023/06/16 02:31:24;;;;;;;7.80;5.43;;;15.10;99.90;;;;;;5033507;28;20488;-64
2023/06/16 02:33:51;;;;;;;9.30;5.50;;;15.10;99.90;;;;;;5033154;28;20037;-63
2023/06/16 02:36:18;;;;;;;9.60;6.05;;;15.10;99.90;;;;;;5033515;28;20410;-63
2023/06/16 02:38:45;;;;;;;9.90;6.45;;;15.10;99.90;;;;;;5033398;28;20041;-63
2023/06/16 02:41:11;;;;;;;10.80;6.72;;;15.10;99.90;;;;;;5033090;28;20487;-63
2023/06/16 02:43:36;;;;;;;10.98;7.28;;;15.10;99.90;;;;;;5033058;28;20378;-64
2023/06/16 02:46:02;;;;;;;11.43;7.38;;;15.20;99.90;;;;;;5032261;28;20481;-63
2023/06/16 02:48:28;;;;;;;13.73;7.20;;;15.30;99.90;;;;;;5033005;28;20065;-63
2023/06/16 02:50:53;;;;;;;12.52;7.63;;;15.30;99.90;;;;;;5032563;28;20033;-63
2023/06/16 02:53:19;;;;;;;8.85;6.78;;;15.30;99.90;;;;;;5032955;28;20038;-63
2023/06/16 02:55:48;;;;;;;9.13;6.60;;;15.30;99.90;;;;;;5032880;28;20037;-63
2023/06/16 02:58:13;;;;;;;8.52;6.80;;;15.20;99.90;;;;;;5031688;28;20041;-63
2023/06/16 03:00:39;;;;;;;7.82;5.63;;;15.10;99.90;;;;;;5032479;28;20406;-64
2023/06/16 03:03:07;;;;;;;8.40;6.22;;;15.00;99.90;;;;;;5032422;28;20038;-64
2023/06/16 03:05:34;;;;;;;8.93;6.45;;;15.00;99.90;;;;;;5032493;28;20117;-64
2023/06/16 03:07:59;;;;;;;9.07;6.03;;;14.90;99.90;;;;;;5032984;28;20050;-63
2023/06/16 03:10:25;;;;;;;7.38;5.78;;;14.80;99.90;;;;;;5032582;28;20041;-64
2023/06/16 03:12:51;;;;;;;9.50;5.95;;;14.80;99.90;;;;;;5032296;28;20091;-63
2023/06/16 03:15:16;;;;;;;9.90;5.45;;;14.70;99.90;;;;;;5032062;28;20120;-64
2023/06/16 03:17:43;;;;;;;12.30;5.70;;;14.70;99.90;;;;;;5032378;28;20503;-63
2023/06/16 03:20:09;;;;;;;8.55;5.82;;;14.60;99.90;;;;;;5031855;28;20061;-64
2023/06/16 03:22:35;;;;;;;8.88;6.28;;;14.60;99.90;;;;;;5032709;28;20041;-63
2023/06/16 03:25:02;;;;;;;10.80;6.00;;;14.50;99.90;;;;;;5032196;28;20041;-63
2023/06/16 03:27:30;;;;;;;8.88;6.20;;;14.40;99.90;;;;;;5032707;28;20099;-64
2023/06/16 03:29:57;;;;;;;7.53;5.30;;;14.40;99.90;;;;;;5031454;28;20041;-63
2023/06/16 03:32:22;;;;;;;7.20;5.50;;;14.40;99.90;;;;;;5032138;28;20610;-63
2023/06/16 03:34:48;;;;;;;11.07;5.95;;;14.30;99.90;;;;;;5032197;28;20045;-63
2023/06/16 03:37:14;;;;;;;10.15;6.57;;;14.30;99.90;;;;;;5031956;28;20048;-63
2023/06/16 03:39:40;;;;;;;10.95;6.70;;;14.40;99.90;;;;;;5030949;28;20044;-64
2023/06/16 03:42:06;;;;;;;10.18;6.50;;;14.40;99.90;;;;;;5031832;28;20597;-63
2023/06/16 03:44:31;;;;;;;7.95;6.20;;;14.50;99.90;;;;;;5031859;28;20400;-63
2023/06/16 03:46:57;;;;;;;10.63;6.88;;;14.50;99.90;;;;;;5030728;28;20506;-64
2023/06/16 03:49:23;;;;;;;11.38;6.80;;;14.50;99.90;;;;;;5031945;28;20084;-63
2023/06/16 03:51:48;;;;;;;8.57;6.38;;;14.50;99.90;;;;;;5030629;28;20037;-63
2023/06/16 03:54:16;;;;;;;10.98;7.10;;;14.40;99.90;;;;;;5031801;28;20458;-63
2023/06/16 03:56:41;;;;;;;14.05;6.38;;;14.40;99.90;;;;;;5031986;28;20037;-63
2023/06/16 03:59:08;;;;;;;10.25;7.00;;;14.40;99.90;;;;;;5031672;28;20076;-66
2023/06/16 04:01:36;;;;;;;8.50;6.75;;;14.40;99.90;;;;;;5056407;22;20045;-65
2023/06/16 04:04:09;;;;;;;9.32;6.75;;;14.40;99.90;;;;;;5022005;28;20160;-65
2023/06/16 04:06:34;;;;;;;9.93;7.45;;;14.40;99.90;;;;;;5013274;28;20049;-65
2023/06/16 04:09:04;;;;;;;10.70;8.18;;;14.50;99.90;;;;;;5012475;28;20049;-65
2023/06/16 04:11:31;;;;;;;10.38;7.90;;;14.60;99.90;;;;;;5031173;28;20038;-65
2023/06/16 04:13:56;;;;;;;12.55;7.53;;;14.60;99.90;;;;;;5014527;28;20045;-65
2023/06/16 04:16:22;;;;;;;10.32;7.65;;;14.60;99.90;;;;;;5018160;28;20046;-65
2023/06/16 04:18:48;;;;;;;10.90;7.38;;;14.70;99.90;;;;;;5035818;28;20045;-65
2023/06/16 04:21:17;;;;;;;10.98;7.68;;;14.80;99.90;;;;;;5035641;28;20499;-65
2023/06/16 04:23:43;;;;;;;12.50;8.82;;;14.90;99.90;;;;;;5035627;28;20041;-65
2023/06/16 04:26:08;;;;;;;15.75;8.80;;;15.00;99.90;;;;;;5035661;28;20038;-64
2023/06/16 04:28:38;;;;;;;11.57;8.63;;;15.10;99.90;;;;;;5049996;28;20114;-65
2023/06/16 04:31:05;;;;;;;12.73;9.30;;;15.20;99.90;;;;;;5055443;28;20037;-65
2023/06/16 04:33:30;;;;;;;11.50;8.95;;;15.30;99.90;;;;;;5055483;28;20107;-65
2023/06/16 04:35:56;;;;;;;14.60;9.45;;;15.30;99.90;;;;;;5055451;28;20502;-65
2023/06/16 04:38:23;;;;;;;13.25;9.38;;;15.40;99.90;;;;;;5055550;28;20072;-65
2023/06/16 04:40:49;;;;;;;14.90;9.57;;;15.50;99.90;;;;;;5055082;28;20048;-65
2023/06/16 04:43:15;;;;;;;14.82;9.10;;;15.50;99.90;;;;;;5054969;28;20029;-64
2023/06/16 04:45:40;;;;;;;15.80;9.77;;;15.50;99.90;;;;;;5055294;28;20041;-65
2023/06/16 04:48:06;;;;;;;13.35;10.35;;;15.50;99.90;;;;;;5055529;28;20086;-64
2023/06/16 04:50:32;;;;;;;14.05;10.52;;;15.60;99.90;;;;;;5055217;28;20036;-65
2023/06/16 04:52:58;;;;;;;14.90;10.32;;;15.70;99.90;;;;;;5054796;28;20045;-65
2023/06/16 04:55:23;;;;;;;15.20;10.57;;;15.90;99.90;;;;;;5054838;28;20383;-65
2023/06/16 04:57:49;;;;;;;14.05;11.35;;;16.00;99.90;;;;;;5054696;28;20067;-65
2023/06/16 05:00:15;;;;;;;14.48;10.05;;;16.00;99.90;;;;;;5054323;28;20490;-64
2023/06/16 05:02:41;;;;;;;12.38;10.38;;;16.10;99.90;;;;;;5054636;28;20557;-65
2023/06/16 05:05:07;;;;;;;16.00;10.98;;;16.20;99.90;;;;;;5054737;28;20120;-65
2023/06/16 05:07:33;;;;;;;14.80;10.45;;;16.30;99.90;;;;;;5054983;28;20052;-65
2023/06/16 05:09:59;;;;;;;14.15;10.27;;;16.50;99.90;;;;;;5054231;28;20427;-65
2023/06/16 05:12:25;;;;;;;15.60;11.57;;;16.50;99.90;;;;;;5036703;28;20045;-65
2023/06/16 05:14:52;;;;;;;21.08;10.70;;;16.60;99.90;;;;;;5054531;28;20040;-65
2023/06/16 05:17:17;;;;;;;14.00;10.90;;;16.60;99.90;;;;;;5054061;28;20041;-65
2023/06/16 05:19:43;;;;;;;14.82;10.43;;;16.70;99.90;;;;;;5054739;28;20048;-64
2023/06/16 05:22:09;;;;;;;21.05;11.57;;;16.80;99.90;;;;;;5054425;28;20045;-65
2023/06/16 05:24:34;;;;;;;18.08;10.77;;;16.90;99.90;;;;;;5054236;28;20040;-65
2023/06/16 05:27:00;;;;;;;15.60;11.30;;;17.00;99.90;;;;;;5054146;28;20041;-65
2023/06/16 05:29:25;;;;;;;19.95;12.38;;;17.10;99.90;;;;;;5054507;28;20033;-65
2023/06/16 05:31:51;;;;;;;15.82;11.70;;;17.40;99.90;;;;;;5036481;28;20079;-65
2023/06/16 05:34:16;;;;;;;14.07;11.13;;;17.60;99.90;;;;;;5054016;28;20043;-65
2023/06/16 05:36:42;;;;;;;15.60;11.63;;;17.70;99.90;;;;;;5054410;28;20068;-65
2023/06/16 05:39:10;;;;;;;16.17;11.57;;;18.00;99.90;;;;;;5054264;28;20513;-65
2023/06/16 05:41:36;;;;;;;14.23;11.60;;;18.30;99.90;;;;;;5053241;28;20037;-65
2023/06/16 05:44:01;;;;;;;18.10;12.50;;;18.40;99.90;;;;;;5054255;28;20040;-65
2023/06/16 05:46:27;;;;;;;14.68;12.23;;;18.50;99.90;;;;;;5054249;28;20510;-65
2023/06/16 05:48:54;;;;;;;15.38;12.27;;;18.50;99.90;;;;;;5053701;28;20041;-64
2023/06/16 05:51:20;;;;;;;18.50;13.10;;;18.40;99.90;;;;;;5053593;28;20043;-65
2023/06/16 05:53:45;;;;;;;15.85;13.38;;;18.50;99.90;;;;;;5035948;28;20124;-64
2023/06/16 05:56:11;;;;;;;18.25;12.75;;;18.50;99.90;;;;;;5053773;28;20052;-65
2023/06/16 05:58:37;;;;;;;17.23;12.40;;;18.50;99.90;;;;;;5053743;28;20048;-64
2023/06/16 06:01:09;;;;;;;16.13;13.43;;;18.60;99.90;;;;;;5035607;28;20047;-64
2023/06/16 06:03:35;;;;;;;19.77;13.25;;;18.60;99.90;;;;;;5053589;28;20638;-64
2023/06/16 06:06:01;;;;;;;16.02;13.48;;;18.60;99.90;;;;;;5035408;28;20106;-64
2023/06/16 06:08:28;;;;;;;15.65;12.57;;;18.60;99.90;;;;;;5053448;28;20052;-64
2023/06/16 06:10:59;;;;;;;16.48;13.10;;;18.70;99.90;;;;;;5035668;28;20067;-64
2023/06/16 06:13:25;;;;;;;20.10;13.80;;;18.80;99.90;;;;;;5053482;28;20078;-64
2023/06/16 06:15:50;;;;;;;16.48;12.68;;;18.90;99.90;;;;;;5053808;28;20115;-65
2023/06/16 06:18:16;;;;;;;17.85;13.65;;;19.10;99.90;;;;;;5053745;28;20037;-64
2023/06/16 06:20:43;;;;;;;16.83;12.93;;;19.20;99.90;;;;;;5035551;28;20617;-64
2023/06/16 06:23:09;;;;;;;18.00;12.35;;;19.30;99.90;;;;;;5053108;28;20119;-64
2023/06/16 06:25:35;;;;;;;18.20;12.10;;;19.40;99.90;;;;;;5053408;28;20116;-64
2023/06/16 06:28:00;;;;;;;15.85;12.63;;;19.50;99.90;;;;;;5053496;28;20498;-65
2023/06/16 06:30:27;;;;;;;15.98;12.75;;;19.60;99.90;;;;;;5035575;28;20124;-64
2023/06/16 06:32:53;;;;;;;16.48;12.80;;;19.70;99.90;;;;;;5053245;28;20045;-64
2023/06/16 06:35:18;;;;;;;17.70;12.30;;;19.80;99.90;;;;;;5035453;28;20056;-65
2023/06/16 06:37:44;;;;;;;16.92;12.55;;;19.90;99.90;;;;;;5052525;28;20546;-64
2023/06/16 06:40:10;;;;;;;15.82;12.40;;;20.00;99.90;;;;;;5052970;28;20029;-64
2023/06/16 06:42:36;;;;;;;15.90;12.68;;;20.10;99.90;;;;;;5053214;28;20043;-65
2023/06/16 06:45:01;;;;;;;14.25;11.10;;;20.30;99.90;;;;;;5052779;28;20037;-64
2023/06/16 06:47:27;;;;;;;16.30;10.70;;;20.40;99.90;;;;;;5052646;28;20033;-65
2023/06/16 06:49:56;;;;;;;12.63;10.90;;;20.40;99.90;;;;;;5035042;28;20036;-64
2023/06/16 06:52:21;;;;;;;13.55;11.32;;;20.50;99.90;;;;;;5052239;28;20037;-64
2023/06/16 06:54:47;;;;;;;13.82;12.02;;;20.60;99.90;;;;;;5052861;28;20098;-64
2023/06/16 06:57:12;;;;;;;14.48;11.55;;;20.70;99.90;;;;;;5053008;28;20120;-64
2023/06/16 06:59:41;;;;;;;13.20;11.07;;;20.80;99.90;;;;;;5052723;28;20037;-65
2023/06/16 07:02:06;;;;;;;11.32;9.05;;;21.00;99.90;;;;;;5052687;28;20037;-64
2023/06/16 07:04:33;;;;;;;14.15;9.80;;;21.10;99.90;;;;;;5017665;28;20132;-65
2023/06/16 07:07:00;;;;;;;15.85;10.40;;;21.20;99.90;;;;;;5052183;28;20040;-65
2023/06/16 07:09:25;;;;;;;14.35;11.25;;;21.20;99.90;;;;;;5052782;28;20116;-65
2023/06/16 07:11:51;;;;;;;13.35;10.57;;;21.30;99.90;;;;;;5052584;28;20131;-65
2023/06/16 07:14:16;;;;;;;18.20;10.88;;;21.40;99.90;;;;;;5034373;28;20048;-65
2023/06/16 07:16:42;;;;;;;14.95;10.88;;;21.50;99.90;;;;;;5052513;28;20114;-65
2023/06/16 07:19:07;;;;;;;14.27;10.70;;;21.60;99.90;;;;;;5052412;28;20044;-65
2023/06/16 07:21:33;;;;;;;14.35;10.57;;;21.80;99.90;;;;;;5052077;28;20048;-65
2023/06/16 07:23:59;;;;;;;15.48;11.55;;;21.80;99.90;;;;;;5052318;28;20116;-65
2023/06/16 07:26:25;;;;;;;13.70;10.73;;;22.00;99.90;;;;;;5052325;28;20048;-65
2023/06/16 07:28:51;;;;;;;15.05;10.10;;;22.00;99.90;;;;;;5051758;28;20041;-65
2023/06/16 07:31:16;;;;;;;13.75;9.65;;;22.10;99.90;;;;;;5051957;28;20045;-65
2023/06/16 07:33:42;;;;;;;12.95;9.73;;;22.30;99.90;;;;;;5051664;28;20037;-65
2023/06/16 07:36:08;;;;;;;10.75;9.20;;;22.40;99.90;;;;;;5052019;28;20063;-65
2023/06/16 07:38:33;;;;;;;12.63;9.88;;;22.40;99.90;;;;;;5051828;28;20037;-65
2023/06/16 07:41:02;;;;;;;14.07;8.73;;;22.50;99.40;;;;;;5051886;28;20049;-65
2023/06/16 07:43:27;;;;;;;11.70;9.00;;;22.60;99.40;;;;;;5051606;28;20040;-65
2023/06/16 07:45:53;;;;;;;10.85;9.18;;;22.80;98.40;;;;;;5034135;28;20060;-66
2023/06/16 07:48:18;;;;;;;11.18;8.05;;;22.80;97.60;;;;;;5051420;28;20051;-65
2023/06/16 07:50:44;;;;;;;12.25;9.13;;;22.80;97.60;;;;;;5051446;28;20074;-65
2023/06/16 07:53:10;;;;;;;13.38;8.45;;;22.90;96.70;;;;;;5051728;28;20041;-65
2023/06/16 07:55:35;;;;;;;10.68;9.02;;;22.90;96.70;;;;;;5051317;28;20041;-66
2023/06/16 07:58:01;;;;;;;11.73;9.13;;;22.90;96.20;;;;;;5033759;28;20051;-65
2023/06/16 08:00:26;;;;;;;9.70;8.50;;;23.00;95.60;;;;;;5034154;28;20041;-65
2023/06/16 08:02:52;;;;;;;12.20;9.55;;;23.00;95.70;;;;;;5051176;28;20037;-65
2023/06/16 08:05:18;;;;;;;13.20;9.45;;;23.20;95.60;;;;;;5051357;28;20041;-65
2023/06/16 08:07:44;;;;;;;14.88;9.32;;;23.40;95.10;;;;;;5051508;28;20498;-65
2023/06/16 08:10:10;;;;;;;11.63;8.55;;;23.30;94.20;;;;;;5051869;28;20398;-65
2023/06/16 08:12:36;;;;;;;10.93;8.00;;;23.20;94.00;;;;;;5033729;28;20037;-65
2023/06/16 08:15:05;;;;;;;10.10;7.30;;;23.30;93.90;;;;;;5033820;28;20111;-65
2023/06/16 08:17:31;;;;;;;9.80;6.47;;;23.30;93.30;;;;;;5033862;28;20040;-65
2023/06/16 08:19:57;;;;;;;9.95;6.53;;;23.50;93.30;;;;;;5033777;28;20079;-64
2023/06/16 08:22:22;;;;;;;13.05;6.63;;;23.50;92.60;;;;;;5033683;28;20041;-65
2023/06/16 08:24:48;;;;;;;10.43;7.22;;;23.60;92.50;;;;;;5051423;28;20051;-65
2023/06/16 08:27:14;;;;;;;7.85;7.05;;;23.60;92.40;;;;;;5051178;28;20041;-65
2023/06/16 08:29:39;;;;;;;8.30;6.22;;;23.80;92.00;;;;;;5051259;28;20033;-65
2023/06/16 08:32:06;;;;;;;8.45;6.32;;;23.80;91.40;;;;;;5051504;28;20058;-65
2023/06/16 08:34:32;;;;;;;9.75;6.85;;;24.00;91.20;;;;;;5051147;28;20418;-65
2023/06/16 08:36:58;;;;;;;7.72;6.32;;;24.10;90.70;;;;;;5033249;28;20045;-65
2023/06/16 08:39:24;;;;;;;9.27;6.88;;;24.20;90.50;;;;;;5033239;28;20057;-65
2023/06/16 08:41:50;;;;;;;9.52;6.28;;;24.30;89.60;;;;;;5051467;28;20080;-65
2023/06/16 08:44:18;;;;;;;9.30;6.25;;;24.40;88.90;;;;;;5051027;28;20033;-65
2023/06/16 08:46:45;;;;;;;7.47;6.50;;;24.30;88.40;;;;;;5042801;28;20044;-65
2023/06/16 08:49:14;;;;;;;8.73;6.28;;;24.30;87.30;;;;;;5046994;28;20045;-65
2023/06/16 08:51:47;;;;;;;7.05;6.20;;;24.50;87.30;;;;;;5010641;28;20399;-65
2023/06/16 08:54:13;;;;;;;7.05;6.35;;;24.60;86.30;;;;;;5011961;28;20045;-65
2023/06/16 08:56:40;;;;;;;8.48;6.55;;;24.60;85.20;;;;;;5021063;28;20527;-65
2023/06/16 08:59:06;;;;;;;11.15;8.00;;;24.70;85.10;;;;;;5029837;28;20071;-64
2023/06/16 09:01:33;;;;;;;8.95;6.95;;;24.70;85.00;;;;;;5051603;28;20032;-65
2023/06/16 09:03:59;;;;;;;8.85;6.72;;;24.70;84.70;;;;;;5044489;28;20045;-64
2023/06/16 09:06:25;;;;;;;10.13;7.10;;;24.80;84.70;;;;;;5042530;28;20046;-64
2023/06/16 09:08:52;;;;;;;8.02;6.65;;;25.00;84.20;;;;;;5052402;28;20033;-65
2023/06/16 09:11:23;;;;;;;8.93;6.68;;;25.00;83.70;;;;;;5042377;28;20108;-65
2023/06/16 09:13:51;;;;;;;7.75;6.40;;;25.20;82.80;;;;;;5034164;28;20076;-65
2023/06/16 09:16:17;;;;;;;7.60;6.10;;;25.10;82.30;;;;;;5034801;28;20495;-65
2023/06/16 09:18:44;;;;;;;8.68;5.82;;;25.10;81.90;;;;;;5046791;28;20037;-65
2023/06/16 09:21:11;;;;;;;7.50;6.50;;;25.10;81.00;;;;;;5043308;28;20045;-65
2023/06/16 09:23:38;;;;;;;8.52;7.25;;;25.10;81.00;;;;;;5016549;28;20045;-65
2023/06/16 09:26:12;;;;;;;10.18;7.38;;;25.20;81.10;;;;;;5016771;28;20129;-65
2023/06/16 09:28:39;;;;;;;7.43;6.55;;;25.40;80.70;;;;;;5021442;28;20101;-65
2023/06/16 09:31:10;;;;;;;7.68;6.45;;;25.50;80.30;;;;;;5050965;28;20037;-65
2023/06/16 09:33:36;;;;;;;8.20;6.55;;;25.60;78.70;;;;;;5047020;28;20040;-65
2023/06/16 09:36:02;;;;;;;10.18;6.97;;;25.50;78.10;;;;;;5019500;28;20040;-65
2023/06/16 09:38:38;;;;;;;7.53;6.15;;;25.50;78.30;;;;;;5054071;28;20041;-65
2023/06/16 09:41:16;;;;;;;7.00;5.90;;;25.60;77.90;;;;;;5050824;28;20073;-65
2023/06/16 09:43:42;;;;;;;7.38;6.15;;;25.70;76.80;;;;;;5021105;28;20041;-65
2023/06/16 09:46:13;;;;;;;7.82;5.65;;;25.60;77.00;;;;;;5038350;28;20115;-65
2023/06/16 09:48:49;;;;;;;6.53;5.20;;;25.70;76.40;;;;;;5039011;28;20449;-65
2023/06/16 09:51:20;;;;;;;9.35;6.60;;;25.80;75.50;;;;;;5018023;28;20107;-65
2023/06/16 09:53:46;;;;;;;7.13;6.43;;;25.60;74.60;;;;;;5044743;28;20063;-65
2023/06/16 09:56:17;;;;;;;8.60;6.22;;;25.40;74.50;;;;;;5049216;28;20038;-65
2023/06/16 09:58:44;;;;;;;6.97;5.57;;;25.40;75.70;;;;;;5042378;28;20033;-65
2023/06/16 10:01:10;;;;;;;7.53;5.63;;;25.50;75.30;;;;;;5056728;22;20124;-64
2023/06/16 10:03:39;;;;;;;6.03;4.95;;;25.70;75.60;;;;;;5040582;28;20041;-64
2023/06/16 10:06:28;;;;;;;7.25;5.47;;;25.70;73.00;;;;;;5044748;28;20151;-64
2023/06/16 10:08:55;;;;;;;6.13;5.00;;;25.80;72.40;;;;;;5042822;28;20207;-64
2023/06/16 10:11:21;;;;;;;7.32;5.70;;;26.10;72.50;;;;;;5053172;28;20478;-64
2023/06/16 10:13:56;;;;;;;6.15;5.38;;;26.20;71.80;;;;;;5032383;28;20034;-64
2023/06/16 10:16:25;;;;;;;6.45;5.22;;;26.20;69.40;;;;;;5026245;28;20042;-64
2023/06/16 10:18:53;;;;;;;8.32;5.72;;;26.20;69.90;;;;;;5032736;28;20037;-64
2023/06/16 10:21:19;;;;;;;6.25;4.88;;;26.30;68.80;;;;;;5039704;28;20131;-64
2023/06/16 10:23:45;;;;;;;6.15;5.00;;;26.40;68.20;;;;;;5031780;28;20085;-65
2023/06/16 10:26:13;;;;;;;8.10;5.35;;;26.30;66.90;;;;;;5033218;28;20041;-65
2023/06/16 10:28:39;;;;;;;6.78;5.13;;;26.30;67.20;;;;;;5032177;28;20029;-64
2023/06/16 10:31:05;;;;;;;6.00;5.15;;;26.30;67.00;;;;;;5043456;28;20033;-65
2023/06/16 10:33:56;;;;;;;7.30;4.43;;;26.30;66.20;;;;;;5052349;28;20533;-65
2023/06/16 10:36:24;;;;;;;6.00;4.80;;;26.40;64.90;;;;;;5053317;28;20495;-64
2023/06/16 10:39:01;;;;;;;7.50;5.65;;;26.40;65.00;;;;;;5053244;28;20379;-64
2023/06/16 10:41:31;;;;;;;6.95;4.75;;;26.40;65.20;;;;;;5040744;28;20038;-64
2023/06/16 10:44:26;;;;;;;5.70;5.10;;;26.40;64.30;;;;;;5050400;28;20277;-65
2023/06/16 10:47:10;;;;;;;6.53;4.53;;;26.30;64.70;;;;;;5053191;28;20055;-65
2023/06/16 10:49:55;;;;;;;5.22;4.28;;;26.30;63.00;;;;;;5047677;28;20112;-64
2023/06/16 10:52:33;;;;;;;5.43;4.45;;;26.40;62.00;;;;;;5034184;28;20039;-65
2023/06/16 10:55:34;;;;;;;5.82;3.92;;;26.50;62.50;;;;;;5032516;28;20163;-65
2023/06/16 10:58:15;;;;;;;13.65;4.63;;;26.50;62.20;;;;;;5032828;28;20545;-64
2023/06/16 11:00:56;;;;;;;6.60;4.63;;;26.70;61.00;;;;;;5032684;28;20041;-65
2023/06/16 11:03:22;;;;;;;5.50;4.88;;;26.80;60.70;;;;;;5031999;28;20069;-65
2023/06/16 11:05:58;;;;;;;6.18;4.53;;;27.00;60.60;;;;;;5036148;28;20065;-65
2023/06/16 11:08:24;;;;;;;6.40;4.20;;;27.10;59.90;;;;;;5033838;28;20040;-65
2023/06/16 11:10:57;;;;;;;4.93;4.38;;;27.10;59.60;;;;;;5039222;28;20037;-65
2023/06/16 11:13:26;;;;;;;6.78;4.30;;;27.10;58.20;;;;;;5040821;28;20108;-64
2023/06/16 11:15:55;;;;;;;5.03;3.80;;;27.00;56.90;;;;;;5039927;28;20132;-65
2023/06/16 11:18:25;;;;;;;5.63;3.83;;;27.00;57.10;;;;;;5038760;28;20064;-65
2023/06/16 11:20:58;;;;;;;5.70;3.88;;;27.00;55.50;;;;;;5034116;28;20088;-64
2023/06/16 11:23:25;;;;;;;6.50;3.70;;;27.00;56.00;;;;;;5033871;28;20086;-65
2023/06/16 11:25:50;;;;;;;6.10;3.50;;;27.10;56.10;;;;;;5042376;28;20041;-65
2023/06/16 11:28:20;;;;;;;3.55;3.20;;;27.20;55.60;;;;;;5037621;28;20044;-64
2023/06/16 11:30:46;;;;;;;8.40;3.67;;;27.30;55.60;;;;;;5036880;28;20029;-64
2023/06/16 11:33:15;;;;;;;6.45;3.95;;;27.30;55.10;;;;;;5041204;28;20038;-64
2023/06/16 11:35:41;;;;;;;5.13;3.80;;;27.20;54.90;;;;;;5039223;28;20124;-64
2023/06/16 11:38:07;;;;;;;8.05;3.80;;;27.10;53.90;;;;;;5039715;28;20125;-64
2023/06/16 11:40:33;;;;;;;4.70;3.78;;;27.20;53.70;;;;;;5047785;28;20041;-64
2023/06/16 11:43:04;;;;;;;5.85;3.50;;;27.30;53.50;;;;;;5052017;28;20562;-64
2023/06/16 11:45:38;;;;;;;6.03;3.53;;;27.40;52.90;;;;;;5051691;28;20495;-65
2023/06/16 11:48:06;;;;;;;5.10;3.20;;;27.40;52.30;;;;;;5051969;28;20116;-64
2023/06/16 11:50:33;;;;;;;3.92;2.85;;;27.50;52.70;;;;;;5052158;28;20055;-65
2023/06/16 11:52:58;;;;;;;6.13;3.30;;;27.60;52.10;;;;;;5050608;28;20112;-65
2023/06/16 11:55:25;;;;;;;6.00;3.28;;;27.70;51.50;;;;;;5051811;28;20072;-65
2023/06/16 11:57:51;;;;;;;3.83;3.45;;;27.60;50.30;;;;;;5052002;28;20053;-65
2023/06/16 12:00:18;;;;;;;3.50;3.08;;;27.60;50.00;;;;;;5051717;28;20116;-65
2023/06/16 12:02:46;;;;;;;6.60;3.30;;;27.50;50.40;;;;;;5050754;28;20051;-65
2023/06/16 12:05:20;;;;;;;4.30;3.15;;;27.40;50.80;;;;;;5051584;28;20090;-65
2023/06/16 12:07:46;;;;;;;5.00;3.75;;;27.40;51.00;;;;;;5051799;28;20475;-65
2023/06/16 12:10:11;;;;;;;4.18;3.17;;;27.30;50.10;;;;;;5051727;28;20044;-65
2023/06/16 12:12:38;;;;;;;3.72;3.33;;;27.20;49.50;;;;;;5050460;28;20499;-65
2023/06/16 12:15:04;;;;;;;4.60;3.63;;;27.20;50.60;;;;;;5051327;28;20115;-65
2023/06/16 12:17:33;;;;;;;4.22;3.28;;;27.20;50.50;;;;;;5051600;28;20044;-65
2023/06/16 12:20:01;;;;;;;5.13;3.28;;;27.30;50.30;;;;;;5051728;28;20036;-65
2023/06/16 12:22:38;;;;;;;5.93;3.00;;;27.40;51.00;;;;;;5051215;28;20503;-65
2023/06/16 12:25:13;;;;;;;4.32;3.55;;;27.60;49.70;;;;;;5051214;28;20047;-65
2023/06/16 12:27:51;;;;;;;4.97;3.28;;;27.70;49.50;;;;;;5044376;28;20061;-65
2023/06/16 12:30:17;;;;;;;5.13;2.90;;;27.40;49.40;;;;;;5031164;28;20088;-65
2023/06/16 12:32:45;;;;;;;8.20;3.47;;;27.50;49.70;;;;;;5031723;28;20046;-65
2023/06/16 12:35:12;;;;;;;4.30;3.08;;;27.50;48.80;;;;;;5032251;28;20033;-65
2023/06/16 12:37:41;;;;;;;6.15;3.42;;;27.50;48.80;;;;;;5035247;28;20056;-65
2023/06/16 12:40:08;;;;;;;4.00;3.10;;;27.40;49.00;;;;;;5035363;28;20081;-65
2023/06/16 12:42:34;;;;;;;3.88;3.20;;;27.40;49.60;;;;;;5035291;28;20044;-65
2023/06/16 12:45:02;;;;;;;4.60;3.40;;;27.40;49.20;;;;;;5033693;28;20507;-65